Time;durP1;ratioP1;P1;durP2;ratioP2;P2;SDS_P1;SDS_P2;PMS_P1;PMS_P2;Temp;Humidity;BMP_temperature;BMP_pressure;BME280_temperature;BME280_humidity;BME280_pressure;Samples;Min_cycle;Max_cycle;Signal;HPM_P1;HPM_P2
2023/05/18 00:00:15;;;;;;;6.15;5.38;;;16.10;58.10;;;;;;4992482;28;20272;-54
2023/05/18 00:02:47;;;;;;;6.93;5.40;;;16.10;58.10;;;;;;4992729;28;20201;-55
2023/05/18 00:05:18;;;;;;;6.20;5.35;;;16.10;58.00;;;;;;4995516;28;20198;-54
2023/05/18 00:07:48;;;;;;;6.35;5.10;;;16.10;58.00;;;;;;5012524;28;20228;-54
2023/05/18 00:10:19;;;;;;;7.63;5.72;;;16.10;58.00;;;;;;5012082;28;20220;-56
2023/05/18 00:12:50;;;;;;;6.40;5.70;;;16.10;58.00;;;;;;5011776;28;20229;-57
2023/05/18 00:15:22;;;;;;;6.35;5.70;;;16.20;58.10;;;;;;5012309;28;20200;-53
2023/05/18 00:17:53;;;;;;;6.13;5.53;;;16.20;58.10;;;;;;5011814;28;20193;-55
2023/05/18 00:20:25;;;;;;;6.60;5.38;;;16.20;58.10;;;;;;5012325;28;20220;-52
2023/05/18 00:22:56;;;;;;;6.15;5.18;;;16.20;58.10;;;;;;5011970;28;20200;-56
2023/05/18 00:25:26;;;;;;;6.57;5.45;;;16.20;58.20;;;;;;5011874;28;20212;-55
2023/05/18 00:27:57;;;;;;;6.68;5.53;;;16.20;58.20;;;;;;5011941;28;20197;-53
2023/05/18 00:30:30;;;;;;;5.50;4.90;;;16.20;58.20;;;;;;5011808;28;20608;-54
2023/05/18 00:33:00;;;;;;;5.72;5.13;;;16.20;58.20;;;;;;5011825;28;20224;-53
2023/05/18 00:35:31;;;;;;;5.95;5.35;;;16.30;58.20;;;;;;5011828;28;20308;-52
2023/05/18 00:38:01;;;;;;;7.05;4.85;;;16.30;58.20;;;;;;5011377;28;20196;-53
2023/05/18 00:40:32;;;;;;;7.32;5.20;;;16.30;58.10;;;;;;5011645;28;20220;-57
2023/05/18 00:43:03;;;;;;;6.18;5.32;;;16.30;58.10;;;;;;5011842;28;20197;-53
2023/05/18 00:45:35;;;;;;;5.55;5.05;;;16.30;58.10;;;;;;5011381;28;20204;-56
2023/05/18 00:48:06;;;;;;;6.05;4.80;;;16.30;58.10;;;;;;5011570;28;20197;-54
2023/05/18 00:50:37;;;;;;;5.50;4.80;;;16.30;58.10;;;;;;5011531;28;20832;-53
2023/05/18 00:53:09;;;;;;;5.60;5.10;;;16.40;58.20;;;;;;5011369;28;20229;-55
2023/05/18 00:55:40;;;;;;;5.35;4.85;;;16.40;58.10;;;;;;5011602;28;20605;-55
2023/05/18 00:58:11;;;;;;;5.18;4.30;;;16.40;58.20;;;;;;5011686;28;20200;-56
2023/05/18 01:00:43;;;;;;;5.60;4.53;;;16.40;58.20;;;;;;5011478;28;20221;-54
2023/05/18 01:03:14;;;;;;;5.25;4.72;;;16.40;58.20;;;;;;5011641;28;20645;-52
2023/05/18 01:05:48;;;;;;;5.85;5.05;;;16.40;58.20;;;;;;5012113;28;20209;-55
2023/05/18 01:08:19;;;;;;;5.47;4.95;;;16.40;58.20;;;;;;5010487;28;20193;-55
2023/05/18 01:10:56;;;;;;;5.78;4.90;;;16.50;58.20;;;;;;5011034;28;20219;-56
2023/05/18 01:13:37;;;;;;;5.25;4.75;;;16.50;58.20;;;;;;5011256;28;20232;-57
2023/05/18 01:16:14;;;;;;;5.05;4.53;;;16.50;58.20;;;;;;5011567;28;20196;-55
2023/05/18 01:18:53;;;;;;;6.00;5.40;;;16.50;58.20;;;;;;5011774;28;20232;-52
2023/05/18 01:21:42;;;;;;;5.22;4.70;;;16.50;58.20;;;;;;5011601;28;20192;-54
2023/05/18 01:24:24;;;;;;;5.20;4.70;;;16.50;58.20;;;;;;5011578;28;20197;-54
2023/05/18 01:26:59;;;;;;;6.55;5.00;;;16.60;58.20;;;;;;5011329;28;20197;-54
2023/05/18 01:29:32;;;;;;;5.35;4.70;;;16.60;58.20;;;;;;5011584;28;20217;-56
2023/05/18 01:32:03;;;;;;;5.63;4.80;;;16.60;58.20;;;;;;5006777;28;20201;-55
2023/05/18 01:34:33;;;;;;;6.40;3.97;;;16.60;58.20;;;;;;4991548;28;20581;-56
2023/05/18 01:37:04;;;;;;;4.93;4.45;;;16.60;58.20;;;;;;5008771;28;20201;-56
2023/05/18 01:39:35;;;;;;;5.38;4.85;;;16.60;58.30;;;;;;5011245;28;20221;-58
2023/05/18 01:42:11;;;;;;;5.07;4.47;;;16.70;58.40;;;;;;5011085;28;20665;-54
2023/05/18 01:44:44;;;;;;;5.38;4.63;;;16.70;58.40;;;;;;5013376;28;20672;-55
2023/05/18 01:47:16;;;;;;;5.03;4.32;;;16.70;58.40;;;;;;5014979;28;20201;-58
2023/05/18 01:49:53;;;;;;;4.90;4.15;;;16.70;58.40;;;;;;5014717;28;20279;-58
2023/05/18 01:52:26;;;;;;;5.30;4.50;;;16.70;58.40;;;;;;5014100;28;20229;-54
2023/05/18 01:55:00;;;;;;;5.03;4.60;;;16.70;58.40;;;;;;5013407;28;20229;-56
2023/05/18 01:57:34;;;;;;;4.82;4.28;;;16.80;58.40;;;;;;5014718;28;20200;-51
2023/05/18 02:00:07;;;;;;;4.82;4.22;;;16.80;58.40;;;;;;5014731;28;20217;-51
2023/05/18 02:02:38;;;;;;;4.18;3.80;;;16.80;58.30;;;;;;5014656;28;20201;-50
2023/05/18 02:05:11;;;;;;;4.93;4.20;;;16.80;58.30;;;;;;5013000;28;20235;-52
2023/05/18 02:07:42;;;;;;;4.38;3.90;;;16.80;58.30;;;;;;5014077;28;20201;-55
2023/05/18 02:10:14;;;;;;;4.65;4.25;;;16.90;58.40;;;;;;5014362;28;20274;-51
2023/05/18 02:12:47;;;;;;;4.60;3.90;;;16.90;58.30;;;;;;5013973;28;20196;-53
2023/05/18 02:15:18;;;;;;;4.78;4.38;;;16.90;58.40;;;;;;5013772;28;20221;-50
2023/05/18 02:17:49;;;;;;;5.20;4.35;;;16.90;58.40;;;;;;5014068;28;20200;-50
2023/05/18 02:20:19;;;;;;;5.03;4.53;;;16.90;58.40;;;;;;5014139;28;20217;-53
2023/05/18 02:22:50;;;;;;;4.97;4.47;;;16.90;58.40;;;;;;5014471;28;20648;-51
2023/05/18 02:25:21;;;;;;;7.38;6.57;;;16.90;58.50;;;;;;5014013;28;20250;-53
2023/05/18 02:27:53;;;;;;;6.00;5.40;;;17.00;58.60;;;;;;5013753;28;20645;-53
2023/05/18 02:30:24;;;;;;;5.43;4.75;;;17.00;58.60;;;;;;5013992;28;20300;-51
2023/05/18 02:32:56;;;;;;;6.65;5.10;;;17.00;58.60;;;;;;5013887;28;20204;-52
2023/05/18 02:35:26;;;;;;;5.80;5.13;;;17.00;58.50;;;;;;5013520;28;20209;-55
2023/05/18 02:37:57;;;;;;;6.85;5.72;;;17.00;58.50;;;;;;5013591;28;20208;-54
2023/05/18 02:40:28;;;;;;;7.05;5.57;;;17.10;58.50;;;;;;5013290;28;20227;-54
2023/05/18 02:43:00;;;;;;;5.95;5.28;;;17.10;58.50;;;;;;5013604;28;20197;-54
2023/05/18 02:45:31;;;;;;;5.95;5.30;;;17.10;58.50;;;;;;5013578;28;20201;-55
2023/05/18 02:48:01;;;;;;;6.13;5.43;;;17.10;58.50;;;;;;5013664;28;20197;-54
2023/05/18 02:50:32;;;;;;;6.85;5.45;;;17.10;58.40;;;;;;5013215;28;20626;-54
2023/05/18 02:53:03;;;;;;;6.40;5.43;;;17.10;58.40;;;;;;5013496;28;20204;-55
2023/05/18 02:55:33;;;;;;;6.78;5.80;;;17.10;58.50;;;;;;5011732;28;20201;-55
2023/05/18 02:58:06;;;;;;;5.47;4.97;;;17.20;58.60;;;;;;5013467;28;20200;-54
2023/05/18 03:00:36;;;;;;;5.93;5.10;;;17.20;58.60;;;;;;5013196;28;20219;-54
2023/05/18 03:03:09;;;;;;;5.85;5.28;;;17.20;58.60;;;;;;5013116;28;20653;-53
2023/05/18 03:05:40;;;;;;;5.88;5.28;;;17.20;58.60;;;;;;5013612;28;20251;-53
2023/05/18 03:08:11;;;;;;;7.50;6.22;;;17.20;58.60;;;;;;5013157;28;20201;-53
2023/05/18 03:10:41;;;;;;;6.28;5.50;;;17.20;58.60;;;;;;5013150;28;20272;-53
2023/05/18 03:13:14;;;;;;;6.55;5.03;;;17.20;58.60;;;;;;5013507;28;20684;-56
2023/05/18 03:15:46;;;;;;;6.57;5.68;;;17.30;58.60;;;;;;5013146;28;20197;-55
2023/05/18 03:18:17;;;;;;;5.95;5.35;;;17.30;58.60;;;;;;5012771;28;20196;-53
2023/05/18 03:20:48;;;;;;;5.65;5.00;;;17.30;58.60;;;;;;5012975;28;20307;-55
2023/05/18 03:23:19;;;;;;;5.70;5.10;;;17.30;58.60;;;;;;5012946;28;20598;-50
2023/05/18 03:25:54;;;;;;;5.68;5.07;;;17.30;58.50;;;;;;5013427;28;20802;-57
2023/05/18 03:28:26;;;;;;;6.10;5.50;;;17.30;58.50;;;;;;5013232;28;20196;-53
2023/05/18 03:30:57;;;;;;;5.95;5.35;;;17.30;58.50;;;;;;5013089;28;20217;-55
2023/05/18 03:33:27;;;;;;;6.78;6.00;;;17.30;58.40;;;;;;5012957;28;20203;-53
2023/05/18 03:36:05;;;;;;;6.10;5.47;;;17.30;58.50;;;;;;5013002;28;20656;-53
2023/05/18 03:38:35;;;;;;;6.20;5.35;;;17.30;58.50;;;;;;5013064;28;20562;-56
2023/05/18 03:41:06;;;;;;;5.80;4.97;;;17.40;58.60;;;;;;5012806;28;20629;-53
2023/05/18 03:43:38;;;;;;;5.43;4.90;;;17.40;58.60;;;;;;5012580;28;20262;-52
2023/05/18 03:46:09;;;;;;;6.43;5.53;;;17.40;58.60;;;;;;5012426;28;20197;-56
2023/05/18 03:48:40;;;;;;;6.10;5.45;;;17.40;58.60;;;;;;5012277;28;20203;-55
2023/05/18 03:51:11;;;;;;;5.88;5.28;;;17.40;58.60;;;;;;5012324;28;20221;-53
2023/05/18 03:53:41;;;;;;;5.72;5.20;;;17.40;58.50;;;;;;5012531;28;20255;-54
2023/05/18 03:56:13;;;;;;;5.38;4.85;;;17.40;58.50;;;;;;5012583;28;20197;-54
2023/05/18 03:58:45;;;;;;;6.20;5.60;;;17.40;58.50;;;;;;5012333;28;20562;-55
2023/05/18 04:01:17;;;;;;;6.22;5.18;;;17.50;58.50;;;;;;5011987;28;20212;-56
2023/05/18 04:03:49;;;;;;;6.20;5.40;;;17.50;58.50;;;;;;5011901;28;20204;-57
2023/05/18 04:06:22;;;;;;;5.97;5.25;;;17.50;58.40;;;;;;5011875;28;20192;-56
2023/05/18 04:08:53;;;;;;;5.85;5.25;;;17.50;58.50;;;;;;5012124;28;20283;-51
2023/05/18 04:11:24;;;;;;;5.43;4.93;;;17.50;58.50;;;;;;5011929;28;20285;-56
2023/05/18 04:13:56;;;;;;;7.20;5.63;;;17.50;58.50;;;;;;5011940;28;20220;-52
2023/05/18 04:16:27;;;;;;;7.22;6.18;;;17.50;58.90;;;;;;5011835;28;20228;-49
2023/05/18 04:18:59;;;;;;;5.30;4.80;;;17.50;59.30;;;;;;5011672;28;20201;-49
2023/05/18 04:21:34;;;;;;;6.93;5.72;;;17.60;59.30;;;;;;5011813;28;20296;-50
2023/05/18 04:24:06;;;;;;;7.60;6.47;;;17.60;59.20;;;;;;5011800;28;20200;-51
2023/05/18 04:26:37;;;;;;;9.07;7.10;;;17.60;59.30;;;;;;5011722;28;20837;-50
2023/05/18 04:29:12;;;;;;;8.27;6.50;;;17.60;59.40;;;;;;5011307;28;20646;-49
2023/05/18 04:31:43;;;;;;;9.57;6.45;;;17.60;60.20;;;;;;5011225;28;20284;-50
2023/05/18 04:34:16;;;;;;;8.45;6.97;;;17.60;59.60;;;;;;5011556;28;20303;-53
2023/05/18 04:36:47;;;;;;;7.75;6.90;;;17.60;59.70;;;;;;5011356;28;20201;-54
2023/05/18 04:39:17;;;;;;;7.70;6.05;;;17.60;59.80;;;;;;5011084;28;20221;-52
2023/05/18 04:41:48;;;;;;;13.50;11.55;;;17.60;59.80;;;;;;5011487;28;20200;-53
2023/05/18 04:44:21;;;;;;;14.80;12.75;;;17.60;59.80;;;;;;5011581;28;20201;-52
2023/05/18 04:46:51;;;;;;;13.77;11.05;;;17.60;59.90;;;;;;5011230;28;20196;-53
2023/05/18 04:49:22;;;;;;;16.55;11.05;;;17.60;60.00;;;;;;5011694;28;20229;-55
2023/05/18 04:51:54;;;;;;;14.13;11.93;;;17.60;59.90;;;;;;5011928;28;20740;-52
2023/05/18 04:54:26;;;;;;;14.32;10.10;;;17.60;59.90;;;;;;5012396;28;20216;-51
2023/05/18 04:56:57;;;;;;;11.05;9.52;;;17.60;59.90;;;;;;5011455;28;20196;-52
2023/05/18 04:59:30;;;;;;;13.20;10.57;;;17.60;59.90;;;;;;5010763;28;20220;-51
2023/05/18 05:02:00;;;;;;;23.88;21.25;;;17.70;59.90;;;;;;5011234;28;20562;-52
2023/05/18 05:04:31;;;;;;;19.20;15.82;;;17.70;59.80;;;;;;5011218;28;20204;-51
2023/05/18 05:07:02;;;;;;;24.73;18.38;;;17.70;59.70;;;;;;5011352;28;20205;-50
2023/05/18 05:09:32;;;;;;;20.75;16.95;;;17.70;59.60;;;;;;5011133;28;20227;-54
2023/05/18 05:12:03;;;;;;;33.10;22.30;;;17.70;59.70;;;;;;5011117;28;20189;-54
2023/05/18 05:14:35;;;;;;;45.15;35.60;;;17.70;59.60;;;;;;5011325;28;20711;-53
2023/05/18 05:17:06;;;;;;;30.52;25.55;;;17.60;59.50;;;;;;5011501;28;20335;-51
2023/05/18 05:19:37;;;;;;;39.35;32.33;;;17.60;59.50;;;;;;5013820;28;20228;-50
2023/05/18 05:22:07;;;;;;;39.83;31.15;;;17.60;59.50;;;;;;5015293;28;20255;-52
2023/05/18 05:24:38;;;;;;;45.03;34.05;;;17.60;60.10;;;;;;5015059;28;20197;-53
2023/05/18 05:27:09;;;;;;;35.45;27.77;;;17.60;59.60;;;;;;5015055;28;20197;-49
2023/05/18 05:29:41;;;;;;;29.17;19.02;;;17.60;59.50;;;;;;5014974;28;20250;-50
2023/05/18 05:32:12;;;;;;;35.20;24.90;;;17.50;60.50;;;;;;5015135;28;20204;-51
2023/05/18 05:34:45;;;;;;;29.63;21.33;;;17.60;60.30;;;;;;5014924;28;20315;-48
2023/05/18 05:37:16;;;;;;;34.55;25.15;;;17.60;59.90;;;;;;5014540;28;20200;-50
2023/05/18 05:39:46;;;;;;;15.43;13.63;;;17.60;59.70;;;;;;5014614;28;20224;-49
2023/05/18 05:42:17;;;;;;;15.25;10.68;;;17.60;59.60;;;;;;5014798;28;20205;-51
2023/05/18 05:44:50;;;;;;;13.95;10.45;;;17.50;59.50;;;;;;5014347;28;20684;-52
2023/05/18 05:47:20;;;;;;;12.55;11.00;;;17.50;59.60;;;;;;5014571;28;20204;-51
2023/05/18 05:49:51;;;;;;;15.25;11.82;;;17.50;59.40;;;;;;5014837;28;20693;-50
2023/05/18 05:52:21;;;;;;;22.30;19.33;;;17.50;59.40;;;;;;5014639;28;20201;-52
2023/05/18 05:54:52;;;;;;;19.60;16.85;;;17.40;59.20;;;;;;5014665;28;20731;-52
2023/05/18 05:57:23;;;;;;;17.52;13.38;;;17.40;59.20;;;;;;5014560;28;20196;-50
2023/05/18 05:59:55;;;;;;;14.88;12.32;;;17.40;59.20;;;;;;5014388;28;20684;-50
2023/05/18 06:02:26;;;;;;;15.55;12.35;;;17.30;59.20;;;;;;5014355;28;20209;-51
2023/05/18 06:04:56;;;;;;;16.00;13.90;;;17.30;59.20;;;;;;5014181;28;20193;-51
2023/05/18 06:07:27;;;;;;;17.02;14.82;;;17.30;59.10;;;;;;4994571;28;20220;-52
2023/05/18 06:09:58;;;;;;;22.45;15.60;;;17.20;58.90;;;;;;4994914;28;20222;-53
2023/05/18 06:12:28;;;;;;;21.08;16.95;;;17.20;59.00;;;;;;4994582;28;20205;-51
2023/05/18 06:15:01;;;;;;;23.95;16.75;;;17.20;59.00;;;;;;4994506;28;20284;-51
2023/05/18 06:17:32;;;;;;;25.92;17.42;;;17.10;58.90;;;;;;4994762;28;20205;-54
2023/05/18 06:20:05;;;;;;;22.45;16.25;;;17.10;58.90;;;;;;4994669;28;20217;-53
2023/05/18 06:22:36;;;;;;;14.48;12.80;;;17.10;59.00;;;;;;4994298;28;20198;-52
2023/05/18 06:25:07;;;;;;;14.43;11.82;;;17.00;59.00;;;;;;4994696;28;20544;-49
2023/05/18 06:27:38;;;;;;;13.10;10.82;;;17.00;59.10;;;;;;4994327;28;20236;-50
2023/05/18 06:30:11;;;;;;;12.90;9.48;;;16.90;59.20;;;;;;4993835;28;20221;-52
2023/05/18 06:32:42;;;;;;;11.73;9.27;;;16.90;59.30;;;;;;4994377;28;20229;-51
2023/05/18 06:35:13;;;;;;;15.27;12.00;;;16.90;59.20;;;;;;4996204;28;20225;-54
2023/05/18 06:37:44;;;;;;;11.85;10.10;;;16.80;59.30;;;;;;5013085;28;20283;-55
2023/05/18 06:40:14;;;;;;;9.52;8.55;;;16.80;59.40;;;;;;5013030;28;20212;-55
2023/05/18 06:42:45;;;;;;;8.90;6.70;;;16.70;59.50;;;;;;5014126;28;20227;-54
2023/05/18 06:45:18;;;;;;;10.70;8.10;;;16.70;59.50;;;;;;5013988;28;20193;-52
2023/05/18 06:47:48;;;;;;;8.73;7.38;;;16.60;59.50;;;;;;5013676;28;20200;-55
2023/05/18 06:50:19;;;;;;;7.85;6.30;;;16.60;59.40;;;;;;5013388;28;20229;-55
2023/05/18 06:52:50;;;;;;;11.38;7.72;;;16.60;59.40;;;;;;5013094;28;20197;-52
2023/05/18 06:55:21;;;;;;;12.73;9.15;;;16.50;59.30;;;;;;5013141;28;20240;-55
2023/05/18 06:57:51;;;;;;;14.98;11.05;;;16.50;59.30;;;;;;5013285;28;20193;-54
2023/05/18 07:00:24;;;;;;;18.02;11.68;;;16.40;59.20;;;;;;5013603;28;20232;-54
2023/05/18 07:02:55;;;;;;;11.93;9.23;;;16.30;59.10;;;;;;5013147;28;20204;-52
2023/05/18 07:05:26;;;;;;;9.48;6.90;;;16.30;59.10;;;;;;5013272;28;20288;-51
2023/05/18 07:07:56;;;;;;;8.98;6.53;;;16.30;59.10;;;;;;5013470;28;20204;-50
2023/05/18 07:10:27;;;;;;;8.27;6.03;;;16.20;59.10;;;;;;5013378;28;20685;-52
2023/05/18 07:12:58;;;;;;;8.10;5.65;;;16.20;59.20;;;;;;5012914;28;20193;-52
2023/05/18 07:15:31;;;;;;;8.43;7.10;;;16.10;59.30;;;;;;5013278;28;20388;-50
2023/05/18 07:18:01;;;;;;;12.25;8.43;;;16.10;59.20;;;;;;5013306;28;20209;-52
2023/05/18 07:20:32;;;;;;;15.18;10.38;;;16.00;59.30;;;;;;5013133;28;20220;-53
2023/05/18 07:23:02;;;;;;;16.63;10.85;;;16.00;59.50;;;;;;5012556;28;20196;-51
2023/05/18 07:25:33;;;;;;;10.73;8.52;;;15.90;59.50;;;;;;5012580;28;20200;-51
2023/05/18 07:28:04;;;;;;;11.95;8.60;;;15.90;59.60;;;;;;5013276;28;20201;-53
2023/05/18 07:30:36;;;;;;;7.63;6.80;;;15.90;59.80;;;;;;5013229;28;20220;-52
2023/05/18 07:33:07;;;;;;;8.40;6.97;;;15.80;59.90;;;;;;5013171;28;20664;-54
2023/05/18 07:35:38;;;;;;;8.88;6.72;;;15.80;60.00;;;;;;5012874;28;20574;-55
2023/05/18 07:38:08;;;;;;;8.23;6.32;;;15.80;60.00;;;;;;5012885;28;20204;-51
2023/05/18 07:40:39;;;;;;;7.82;6.63;;;15.70;60.00;;;;;;5012952;28;20584;-51
2023/05/18 07:43:10;;;;;;;7.53;6.32;;;15.70;60.20;;;;;;5011985;28;20192;-52
2023/05/18 07:45:42;;;;;;;7.90;6.65;;;15.70;60.40;;;;;;5011985;28;20201;-52
2023/05/18 07:48:13;;;;;;;8.20;7.40;;;15.60;60.50;;;;;;5012507;28;20201;-50
2023/05/18 07:50:43;;;;;;;9.23;7.40;;;15.60;60.70;;;;;;5012655;28;20225;-53
2023/05/18 07:53:14;;;;;;;7.63;6.15;;;15.60;60.90;;;;;;5012133;28;20204;-53
2023/05/18 07:55:45;;;;;;;10.07;7.00;;;15.60;61.10;;;;;;5012016;28;20225;-52
2023/05/18 07:58:15;;;;;;;6.22;5.53;;;15.50;61.20;;;;;;5012136;28;20204;-52
2023/05/18 08:00:48;;;;;;;9.18;6.82;;;15.50;61.30;;;;;;5012322;28;20217;-56
2023/05/18 08:03:18;;;;;;;9.63;7.20;;;15.50;61.40;;;;;;5012325;28;20204;-51
2023/05/18 08:05:49;;;;;;;10.52;8.82;;;15.50;61.30;;;;;;5012134;28;20224;-51
2023/05/18 08:08:20;;;;;;;10.70;8.55;;;15.50;61.30;;;;;;5012417;28;20251;-54
2023/05/18 08:10:52;;;;;;;8.75;7.18;;;15.40;61.40;;;;;;5011887;28;20216;-51
2023/05/18 08:13:23;;;;;;;7.68;6.70;;;15.40;61.50;;;;;;5012319;28;20617;-50
2023/05/18 08:15:55;;;;;;;9.30;6.80;;;15.40;61.60;;;;;;5012165;28;20624;-50
2023/05/18 08:18:26;;;;;;;8.55;6.97;;;15.40;61.80;;;;;;5012377;28;20696;-53
2023/05/18 08:20:57;;;;;;;8.77;6.72;;;15.30;61.80;;;;;;5012386;28;20267;-51
2023/05/18 08:23:28;;;;;;;8.82;7.25;;;15.30;62.00;;;;;;5012252;28;20201;-53
2023/05/18 08:25:59;;;;;;;8.13;7.30;;;15.30;62.10;;;;;;5012173;28;20216;-53
2023/05/18 08:28:29;;;;;;;9.98;6.93;;;15.30;62.20;;;;;;5012233;28;20223;-52
2023/05/18 08:31:02;;;;;;;8.35;6.40;;;15.30;63.30;;;;;;5011821;28;20224;-53
2023/05/18 08:33:33;;;;;;;8.38;6.05;;;15.30;62.60;;;;;;5011003;28;20197;-50
2023/05/18 08:36:03;;;;;;;5.75;4.95;;;15.30;62.80;;;;;;5011426;28;20389;-50
2023/05/18 08:38:34;;;;;;;8.20;6.20;;;15.30;63.00;;;;;;5011722;28;20197;-52
2023/05/18 08:41:14;;;;;;;9.82;8.43;;;15.30;63.10;;;;;;5011807;28;20756;-52
2023/05/18 08:43:47;;;;;;;8.57;7.20;;;15.30;63.30;;;;;;5005404;28;20650;-51
2023/05/18 08:46:26;;;;;;;10.05;7.50;;;15.30;63.30;;;;;;4991890;28;20229;-50
2023/05/18 08:49:00;;;;;;;11.77;7.22;;;15.30;63.50;;;;;;4990947;28;20200;-53
2023/05/18 08:51:35;;;;;;;6.85;5.60;;;15.30;63.50;;;;;;4991515;28;20201;-51
2023/05/18 08:54:06;;;;;;;10.27;5.50;;;15.30;63.60;;;;;;4990733;28;20197;-51
2023/05/18 08:56:38;;;;;;;7.88;5.50;;;15.30;63.70;;;;;;4991936;28;20312;-52
2023/05/18 08:59:11;;;;;;;7.05;4.53;;;15.30;63.80;;;;;;4991731;28;20673;-50
2023/05/18 09:01:44;;;;;;;4.90;3.80;;;15.30;63.90;;;;;;5010258;28;20201;-50
2023/05/18 09:04:16;;;;;;;4.50;3.80;;;15.20;63.90;;;;;;5009901;28;20207;-49
2023/05/18 09:06:48;;;;;;;5.55;3.78;;;15.30;64.80;;;;;;5010624;28;20668;-51
2023/05/18 09:09:19;;;;;;;4.65;4.00;;;15.30;64.10;;;;;;5011822;28;20286;-49
2023/05/18 09:11:51;;;;;;;5.10;4.38;;;15.30;64.20;;;;;;5011366;28;20204;-49
2023/05/18 09:14:24;;;;;;;4.50;3.97;;;15.30;64.30;;;;;;5011060;28;20208;-51
2023/05/18 09:16:57;;;;;;;4.43;3.00;;;15.30;64.30;;;;;;5011070;28;20228;-49
2023/05/18 09:19:28;;;;;;;2.60;2.40;;;15.30;64.30;;;;;;5010794;28;20227;-51
2023/05/18 09:21:58;;;;;;;4.40;2.90;;;15.30;64.40;;;;;;5011155;28;20251;-51
2023/05/18 09:24:29;;;;;;;4.72;2.90;;;15.30;64.40;;;;;;5011496;28;20208;-51
2023/05/18 09:27:00;;;;;;;4.20;2.80;;;15.30;64.50;;;;;;5011450;28;20201;-49
2023/05/18 09:29:31;;;;;;;3.45;2.55;;;15.30;64.60;;;;;;5011329;28;20228;-50
2023/05/18 09:32:05;;;;;;;2.50;2.30;;;15.30;64.70;;;;;;5011285;28;20316;-52
2023/05/18 09:34:44;;;;;;;2.53;2.33;;;15.20;64.70;;;;;;5010810;28;20196;-53
2023/05/18 09:37:17;;;;;;;2.88;2.60;;;15.20;64.70;;;;;;5011231;28;20247;-52
2023/05/18 09:39:59;;;;;;;2.70;2.50;;;15.20;64.60;;;;;;5011239;28;20587;-53
2023/05/18 09:42:38;;;;;;;2.50;2.30;;;15.20;64.60;;;;;;5011384;28;20254;-52
2023/05/18 09:45:22;;;;;;;3.67;2.88;;;15.20;64.60;;;;;;5011256;28;20223;-53
2023/05/18 09:47:55;;;;;;;3.05;2.55;;;15.20;64.60;;;;;;5010346;28;20898;-52
2023/05/18 09:50:26;;;;;;;3.63;2.88;;;15.20;64.50;;;;;;5009008;28;20248;-51
2023/05/18 09:52:57;;;;;;;2.95;2.65;;;15.20;64.40;;;;;;5010172;28;20204;-49
2023/05/18 09:55:28;;;;;;;4.20;3.00;;;15.20;64.30;;;;;;5009636;28;20208;-56
2023/05/18 09:58:02;;;;;;;4.03;2.95;;;15.20;64.20;;;;;;5010661;28;20197;-52
2023/05/18 10:00:32;;;;;;;4.00;2.42;;;15.20;64.10;;;;;;5010833;28;20220;-55
2023/05/18 10:03:05;;;;;;;4.03;2.70;;;15.30;64.10;;;;;;5011230;28;20197;-55
2023/05/18 10:05:38;;;;;;;4.18;2.83;;;15.30;64.00;;;;;;5012916;28;20201;-53
2023/05/18 10:08:09;;;;;;;2.80;2.45;;;15.30;63.80;;;;;;5014762;28;20251;-53
2023/05/18 10:10:43;;;;;;;3.13;2.83;;;15.30;63.70;;;;;;5014133;28;20224;-50
2023/05/18 10:13:18;;;;;;;3.97;2.60;;;15.30;63.60;;;;;;5014350;28;20192;-50
2023/05/18 10:15:53;;;;;;;3.83;2.78;;;15.30;63.50;;;;;;5014169;28;20232;-52
2023/05/18 10:18:29;;;;;;;2.95;2.63;;;15.40;63.40;;;;;;5013709;28;20196;-49
2023/05/18 10:21:01;;;;;;;4.18;2.90;;;15.40;63.30;;;;;;5013578;28;20224;-51
2023/05/18 10:23:34;;;;;;;3.33;2.47;;;15.40;63.20;;;;;;5014361;28;20205;-55
2023/05/18 10:26:08;;;;;;;3.83;2.63;;;15.40;63.10;;;;;;5014082;28;20657;-48
2023/05/18 10:28:43;;;;;;;3.20;2.20;;;15.40;63.10;;;;;;5014126;28;20198;-52
2023/05/18 10:31:14;;;;;;;4.15;2.58;;;15.50;63.10;;;;;;5013327;28;20833;-53
2023/05/18 10:33:47;;;;;;;2.67;2.30;;;15.50;63.00;;;;;;5013872;28;20197;-52
2023/05/18 10:36:19;;;;;;;3.80;2.97;;;15.50;63.00;;;;;;5011446;28;20216;-55
2023/05/18 10:38:50;;;;;;;5.38;2.60;;;15.50;62.90;;;;;;5013545;28;20200;-49
2023/05/18 10:41:24;;;;;;;3.85;2.70;;;15.50;62.80;;;;;;5013509;28;20263;-53
2023/05/18 10:44:02;;;;;;;4.05;3.28;;;15.50;62.70;;;;;;5013825;28;20205;-52
2023/05/18 10:46:33;;;;;;;2.55;2.35;;;15.50;62.60;;;;;;5014249;28;20197;-54
2023/05/18 10:49:12;;;;;;;3.28;2.58;;;15.50;62.50;;;;;;5013500;28;20649;-53
2023/05/18 10:51:46;;;;;;;4.15;2.30;;;15.50;62.50;;;;;;5013412;28;20193;-55
2023/05/18 10:54:17;;;;;;;3.33;2.67;;;15.50;62.40;;;;;;5013610;28;20672;-52
2023/05/18 10:56:51;;;;;;;4.25;2.60;;;15.50;62.30;;;;;;5012776;28;20231;-50
2023/05/18 10:59:23;;;;;;;3.75;2.95;;;15.50;62.30;;;;;;5012422;28;20255;-48
2023/05/18 11:01:55;;;;;;;3.60;2.70;;;15.60;62.30;;;;;;5012615;28;20288;-53
2023/05/18 11:04:28;;;;;;;3.45;2.72;;;15.60;62.20;;;;;;5013075;28;20201;-48
2023/05/18 11:07:01;;;;;;;3.78;2.78;;;15.60;62.20;;;;;;5013058;28;20200;-49
2023/05/18 11:09:32;;;;;;;2.70;2.28;;;15.60;62.10;;;;;;5013936;28;20732;-50
2023/05/18 11:12:03;;;;;;;2.65;2.42;;;15.60;62.10;;;;;;5013130;28;20200;-51
2023/05/18 11:14:34;;;;;;;2.65;2.45;;;15.60;62.00;;;;;;5013450;28;20600;-50
2023/05/18 11:17:19;;;;;;;3.35;2.35;;;15.60;62.00;;;;;;5011932;28;20224;-48
2023/05/18 11:20:20;;;;;;;3.08;2.45;;;15.60;62.00;;;;;;5011982;28;20236;-50
2023/05/18 11:22:52;;;;;;;3.08;2.45;;;15.60;61.90;;;;;;5012522;28;20538;-49
2023/05/18 11:25:44;;;;;;;2.72;2.42;;;15.60;61.90;;;;;;5012667;28;20208;-50
2023/05/18 11:28:16;;;;;;;3.00;2.60;;;15.60;61.90;;;;;;5013214;28;20287;-49
2023/05/18 11:30:53;;;;;;;2.60;2.38;;;15.60;61.70;;;;;;5012940;28;20213;-49
2023/05/18 11:33:29;;;;;;;2.67;2.30;;;15.60;61.70;;;;;;5013016;28;20203;-48
2023/05/18 11:36:12;;;;;;;2.83;2.17;;;15.60;62.40;;;;;;5012823;28;20283;-50
2023/05/18 11:38:52;;;;;;;3.03;2.50;;;15.60;61.70;;;;;;5013058;28;20565;-50
2023/05/18 11:41:41;;;;;;;2.45;2.25;;;15.60;61.60;;;;;;5012756;28;20283;-49
2023/05/18 11:44:19;;;;;;;2.58;2.25;;;15.60;61.70;;;;;;5012392;28;20196;-48
2023/05/18 11:46:57;;;;;;;2.70;2.50;;;15.60;61.50;;;;;;5012864;28;20204;-49
2023/05/18 11:49:29;;;;;;;3.42;2.47;;;15.60;61.50;;;;;;5012665;28;20224;-51
2023/05/18 11:52:08;;;;;;;2.88;2.28;;;15.60;61.50;;;;;;5012643;28;20197;-48
2023/05/18 11:54:45;;;;;;;2.55;2.17;;;15.60;61.50;;;;;;5012256;28;20204;-53
2023/05/18 11:57:17;;;;;;;3.38;2.70;;;15.60;61.50;;;;;;5012056;28;20224;-51
2023/05/18 11:59:48;;;;;;;3.03;2.55;;;15.60;61.50;;;;;;5011849;28;20224;-55
2023/05/18 12:02:26;;;;;;;2.67;2.10;;;15.60;61.40;;;;;;5012496;28;20200;-53
2023/05/18 12:04:59;;;;;;;2.55;2.30;;;15.60;61.40;;;;;;5012965;28;20197;-49
2023/05/18 12:07:33;;;;;;;2.33;2.13;;;15.60;61.40;;;;;;5013121;28;20203;-49
2023/05/18 12:10:06;;;;;;;3.10;2.55;;;15.60;61.30;;;;;;5012682;28;20231;-52
2023/05/18 12:12:36;;;;;;;2.97;2.40;;;15.60;61.30;;;;;;5012361;28;20205;-54
2023/05/18 12:15:10;;;;;;;3.28;2.58;;;15.60;61.30;;;;;;5012326;28;20201;-49
2023/05/18 12:17:45;;;;;;;2.47;2.28;;;15.60;61.30;;;;;;5012258;28;20626;-51
2023/05/18 12:20:16;;;;;;;2.95;2.42;;;15.60;61.30;;;;;;5011887;28;20227;-52
2023/05/18 12:22:51;;;;;;;2.50;2.25;;;15.60;61.20;;;;;;5012169;28;20196;-52
2023/05/18 12:25:23;;;;;;;2.50;2.30;;;15.60;61.20;;;;;;5011957;28;20287;-51
2023/05/18 12:27:55;;;;;;;2.38;2.17;;;15.60;61.10;;;;;;5012104;28;20201;-49
2023/05/18 12:30:33;;;;;;;2.55;2.35;;;15.60;61.10;;;;;;5011809;28;20217;-49
2023/05/18 12:33:05;;;;;;;2.65;2.25;;;15.60;61.10;;;;;;5011187;28;20197;-54
2023/05/18 12:35:36;;;;;;;2.50;2.30;;;15.60;61.10;;;;;;5011175;28;20668;-52
2023/05/18 12:38:08;;;;;;;2.60;2.40;;;15.60;61.10;;;;;;5011829;28;20227;-49
2023/05/18 12:40:45;;;;;;;3.05;2.53;;;15.60;61.10;;;;;;5011507;28;20217;-50
2023/05/18 12:43:16;;;;;;;2.95;2.22;;;15.60;61.10;;;;;;5011793;28;20292;-50
2023/05/18 12:45:47;;;;;;;2.72;2.40;;;15.60;61.10;;;;;;5012025;28;20205;-51
2023/05/18 12:48:18;;;;;;;2.80;2.60;;;15.60;61.10;;;;;;5011713;28;20201;-49
2023/05/18 12:50:52;;;;;;;2.45;2.22;;;15.60;61.00;;;;;;5011298;28;20267;-51
2023/05/18 12:53:25;;;;;;;3.17;2.50;;;15.50;60.90;;;;;;5011308;28;20204;-50
2023/05/18 12:56:08;;;;;;;2.70;2.45;;;15.60;60.90;;;;;;5011046;28;20285;-52
2023/05/18 12:58:39;;;;;;;2.30;2.10;;;15.60;60.90;;;;;;5010368;28;20224;-52
2023/05/18 13:01:13;;;;;;;2.60;2.40;;;15.60;60.90;;;;;;5010516;28;20278;-53
2023/05/18 13:03:44;;;;;;;2.65;2.40;;;15.50;61.60;;;;;;5011369;28;20255;-52
2023/05/18 13:06:14;;;;;;;2.90;2.47;;;15.60;60.90;;;;;;5011477;28;20258;-52
2023/05/18 13:08:47;;;;;;;2.60;2.40;;;15.60;60.90;;;;;;5011874;28;20204;-52